Terminal Aerodrome Forecast
Issued by NWS

Home | Current Version | Previous Version | Text Only | Print | Product List | Glossary On
Versions: 1 2 3 4 5 6 7 8 9 10 11 12 13 14 15 16 17 18 19 20 21 22 23 24 25 26 27 28 29 30 31 32 33 34 35
000
FTAK31 PAFA 210015 AAA
TAFAGA
TAF AMD
PAGA 210015Z 2100/2124 28009KT P6SM BKN040
     FM210200 28007KT P6SM SCT025 OVC050
     FM210400 25003KT P6SM FEW100 SCT200
     FM211400 VRB02KT 5SM BR FEW004=

USA.gov is the U.S. government's official web portal to all federal, state and local government web resources and services.